sensor_id;sensor_type;location;lat;lon;timestamp;temperature;humidity
41694;DHT22;27377;50.666;9.150;2023-08-21T00:01:22;20.30;99.90
41694;DHT22;27377;50.666;9.150;2023-08-21T00:03:47;20.30;99.90
41694;DHT22;27377;50.666;9.150;2023-08-21T00:06:13;20.30;99.90
41694;DHT22;27377;50.666;9.150;2023-08-21T00:08:39;20.20;99.90
41694;DHT22;27377;50.666;9.150;2023-08-21T00:11:04;20.20;99.90
41694;DHT22;27377;50.666;9.150;2023-08-21T00:13:30;20.20;99.90
41694;DHT22;27377;50.666;9.150;2023-08-21T00:15:55;20.20;99.90
41694;DHT22;27377;50.666;9.150;2023-08-21T00:18:21;20.10;99.90
41694;DHT22;27377;50.666;9.150;2023-08-21T00:20:47;20.10;99.90
41694;DHT22;27377;50.666;9.150;2023-08-21T00:23:13;20.10;99.90
41694;DHT22;27377;50.666;9.150;2023-08-21T00:25:38;20.10;99.90
41694;DHT22;27377;50.666;9.150;2023-08-21T00:28:04;20.10;99.90
41694;DHT22;27377;50.666;9.150;2023-08-21T00:30:30;20.10;99.90
41694;DHT22;27377;50.666;9.150;2023-08-21T00:32:55;20.00;99.90
41694;DHT22;27377;50.666;9.150;2023-08-21T00:35:21;20.00;99.90
41694;DHT22;27377;50.666;9.150;2023-08-21T00:37:46;20.00;99.90
41694;DHT22;27377;50.666;9.150;2023-08-21T00:40:12;20.00;99.90
41694;DHT22;27377;50.666;9.150;2023-08-21T00:42:38;20.00;99.90
41694;DHT22;27377;50.666;9.150;2023-08-21T00:45:04;20.00;99.90
41694;DHT22;27377;50.666;9.150;2023-08-21T00:47:30;19.90;99.90
41694;DHT22;27377;50.666;9.150;2023-08-21T00:49:55;19.90;99.90
41694;DHT22;27377;50.666;9.150;2023-08-21T00:52:21;19.90;99.90
41694;DHT22;27377;50.666;9.150;2023-08-21T00:54:47;19.90;99.90
41694;DHT22;27377;50.666;9.150;2023-08-21T00:57:14;19.80;99.90
41694;DHT22;27377;50.666;9.150;2023-08-21T00:59:40;19.80;99.90
41694;DHT22;27377;50.666;9.150;2023-08-21T01:02:05;19.80;99.90
41694;DHT22;27377;50.666;9.150;2023-08-21T01:04:31;19.70;99.90
41694;DHT22;27377;50.666;9.150;2023-08-21T01:06:57;19.70;99.90
41694;DHT22;27377;50.666;9.150;2023-08-21T01:09:49;19.70;99.90
41694;DHT22;27377;50.666;9.150;2023-08-21T01:12:28;19.60;99.90
41694;DHT22;27377;50.666;9.150;2023-08-21T01:15:03;19.60;99.90
41694;DHT22;27377;50.666;9.150;2023-08-21T01:17:30;19.60;99.90
41694;DHT22;27377;50.666;9.150;2023-08-21T01:19:58;19.60;99.90
41694;DHT22;27377;50.666;9.150;2023-08-21T01:22:27;19.50;99.90
41694;DHT22;27377;50.666;9.150;2023-08-21T01:24:56;19.50;99.90
41694;DHT22;27377;50.666;9.150;2023-08-21T01:27:22;19.50;99.90
41694;DHT22;27377;50.666;9.150;2023-08-21T01:29:48;19.40;99.90
41694;DHT22;27377;50.666;9.150;2023-08-21T01:34:58;19.40;99.90
41694;DHT22;27377;50.666;9.150;2023-08-21T01:37:24;19.40;99.90
41694;DHT22;27377;50.666;9.150;2023-08-21T01:39:51;19.40;99.90
41694;DHT22;27377;50.666;9.150;2023-08-21T01:42:16;19.40;99.90
41694;DHT22;27377;50.666;9.150;2023-08-21T01:44:42;19.40;99.90
41694;DHT22;27377;50.666;9.150;2023-08-21T01:47:11;19.30;99.90
41694;DHT22;27377;50.666;9.150;2023-08-21T01:49:37;19.30;99.90
41694;DHT22;27377;50.666;9.150;2023-08-21T01:52:03;19.30;99.90
41694;DHT22;27377;50.666;9.150;2023-08-21T01:54:28;19.40;99.90
41694;DHT22;27377;50.666;9.150;2023-08-21T01:56:54;19.40;99.90
41694;DHT22;27377;50.666;9.150;2023-08-21T01:59:20;19.30;99.90
41694;DHT22;27377;50.666;9.150;2023-08-21T02:01:45;19.30;99.90
41694;DHT22;27377;50.666;9.150;2023-08-21T02:04:11;19.30;99.90
41694;DHT22;27377;50.666;9.150;2023-08-21T02:06:36;19.20;99.90
41694;DHT22;27377;50.666;9.150;2023-08-21T02:09:02;19.20;99.90
41694;DHT22;27377;50.666;9.150;2023-08-21T02:11:27;19.20;99.90
41694;DHT22;27377;50.666;9.150;2023-08-21T02:13:53;19.20;99.90
41694;DHT22;27377;50.666;9.150;2023-08-21T02:16:19;19.20;99.90
41694;DHT22;27377;50.666;9.150;2023-08-21T02:18:45;19.20;99.90
41694;DHT22;27377;50.666;9.150;2023-08-21T02:21:11;19.20;99.90
41694;DHT22;27377;50.666;9.150;2023-08-21T02:23:36;19.20;99.90
41694;DHT22;27377;50.666;9.150;2023-08-21T02:26:02;19.10;99.90
41694;DHT22;27377;50.666;9.150;2023-08-21T02:28:27;19.10;99.90
41694;DHT22;27377;50.666;9.150;2023-08-21T02:30:53;19.10;99.90
41694;DHT22;27377;50.666;9.150;2023-08-21T02:33:19;19.00;99.90
41694;DHT22;27377;50.666;9.150;2023-08-21T02:35:44;19.00;99.90
41694;DHT22;27377;50.666;9.150;2023-08-21T02:38:10;19.00;99.90
41694;DHT22;27377;50.666;9.150;2023-08-21T02:40:35;19.00;99.90
41694;DHT22;27377;50.666;9.150;2023-08-21T02:43:01;18.90;99.90
41694;DHT22;27377;50.666;9.150;2023-08-21T02:45:26;18.90;99.90
41694;DHT22;27377;50.666;9.150;2023-08-21T02:47:52;18.90;99.90
41694;DHT22;27377;50.666;9.150;2023-08-21T02:50:17;18.90;99.90
41694;DHT22;27377;50.666;9.150;2023-08-21T02:52:43;18.90;99.90
41694;DHT22;27377;50.666;9.150;2023-08-21T02:55:09;18.90;99.90
41694;DHT22;27377;50.666;9.150;2023-08-21T02:57:34;18.90;99.90
41694;DHT22;27377;50.666;9.150;2023-08-21T03:00:00;18.80;99.90
41694;DHT22;27377;50.666;9.150;2023-08-21T03:02:25;18.90;99.90
41694;DHT22;27377;50.666;9.150;2023-08-21T03:04:52;18.90;99.90
41694;DHT22;27377;50.666;9.150;2023-08-21T03:07:18;18.90;99.90
41694;DHT22;27377;50.666;9.150;2023-08-21T03:09:48;18.90;99.90
41694;DHT22;27377;50.666;9.150;2023-08-21T03:12:14;18.80;99.90
41694;DHT22;27377;50.666;9.150;2023-08-21T03:14:39;18.80;99.90
41694;DHT22;27377;50.666;9.150;2023-08-21T03:17:05;18.80;99.90
41694;DHT22;27377;50.666;9.150;2023-08-21T03:19:31;18.80;99.90
41694;DHT22;27377;50.666;9.150;2023-08-21T03:21:56;18.70;99.90
41694;DHT22;27377;50.666;9.150;2023-08-21T03:24:22;18.80;99.90
41694;DHT22;27377;50.666;9.150;2023-08-21T03:26:47;18.80;99.90
41694;DHT22;27377;50.666;9.150;2023-08-21T03:29:13;18.80;99.90
41694;DHT22;27377;50.666;9.150;2023-08-21T03:31:39;18.70;99.90
41694;DHT22;27377;50.666;9.150;2023-08-21T03:34:04;18.70;99.90
41694;DHT22;27377;50.666;9.150;2023-08-21T03:36:30;18.70;99.90
41694;DHT22;27377;50.666;9.150;2023-08-21T03:39:02;18.60;99.90
41694;DHT22;27377;50.666;9.150;2023-08-21T03:41:27;18.60;99.90
41694;DHT22;27377;50.666;9.150;2023-08-21T03:43:53;18.70;99.90
41694;DHT22;27377;50.666;9.150;2023-08-21T03:46:19;18.70;99.90
41694;DHT22;27377;50.666;9.150;2023-08-21T03:48:45;18.60;99.90
41694;DHT22;27377;50.666;9.150;2023-08-21T03:51:11;18.60;99.90
41694;DHT22;27377;50.666;9.150;2023-08-21T03:53:36;18.60;99.90
41694;DHT22;27377;50.666;9.150;2023-08-21T03:56:02;18.60;99.90
41694;DHT22;27377;50.666;9.150;2023-08-21T03:58:28;18.60;99.90
41694;DHT22;27377;50.666;9.150;2023-08-21T04:00:53;18.60;99.90
41694;DHT22;27377;50.666;9.150;2023-08-21T04:03:19;18.50;99.90
41694;DHT22;27377;50.666;9.150;2023-08-21T04:05:45;18.50;99.90
41694;DHT22;27377;50.666;9.150;2023-08-21T04:08:11;18.50;99.90
41694;DHT22;27377;50.666;9.150;2023-08-21T04:10:36;18.40;99.90
41694;DHT22;27377;50.666;9.150;2023-08-21T04:13:04;18.50;99.90
41694;DHT22;27377;50.666;9.150;2023-08-21T04:15:30;18.50;99.90
41694;DHT22;27377;50.666;9.150;2023-08-21T04:17:55;18.50;99.90
41694;DHT22;27377;50.666;9.150;2023-08-21T04:20:21;18.50;99.90
41694;DHT22;27377;50.666;9.150;2023-08-21T04:22:47;18.50;99.90
41694;DHT22;27377;50.666;9.150;2023-08-21T04:25:13;18.50;99.90
41694;DHT22;27377;50.666;9.150;2023-08-21T04:27:38;18.50;99.90
41694;DHT22;27377;50.666;9.150;2023-08-21T04:30:05;18.50;99.90
41694;DHT22;27377;50.666;9.150;2023-08-21T04:32:30;18.40;99.90
41694;DHT22;27377;50.666;9.150;2023-08-21T04:34:56;18.40;99.90
41694;DHT22;27377;50.666;9.150;2023-08-21T04:37:23;18.40;99.90
41694;DHT22;27377;50.666;9.150;2023-08-21T04:39:52;18.30;99.90
41694;DHT22;27377;50.666;9.150;2023-08-21T04:42:17;18.40;99.90
41694;DHT22;27377;50.666;9.150;2023-08-21T04:44:43;18.30;99.90
41694;DHT22;27377;50.666;9.150;2023-08-21T04:47:26;18.30;99.90
41694;DHT22;27377;50.666;9.150;2023-08-21T04:49:52;18.30;99.90
41694;DHT22;27377;50.666;9.150;2023-08-21T04:52:23;18.30;99.90
41694;DHT22;27377;50.666;9.150;2023-08-21T04:54:49;18.30;99.90
41694;DHT22;27377;50.666;9.150;2023-08-21T04:57:15;18.30;99.90
41694;DHT22;27377;50.666;9.150;2023-08-21T04:59:41;18.40;99.90
41694;DHT22;27377;50.666;9.150;2023-08-21T05:02:06;18.30;99.90
41694;DHT22;27377;50.666;9.150;2023-08-21T05:04:36;18.30;99.90
41694;DHT22;27377;50.666;9.150;2023-08-21T05:07:03;18.40;99.90
41694;DHT22;27377;50.666;9.150;2023-08-21T05:09:30;18.30;99.90
41694;DHT22;27377;50.666;9.150;2023-08-21T05:11:56;18.30;99.90
41694;DHT22;27377;50.666;9.150;2023-08-21T05:14:22;18.40;99.90
41694;DHT22;27377;50.666;9.150;2023-08-21T05:16:51;18.30;99.90
41694;DHT22;27377;50.666;9.150;2023-08-21T05:19:17;18.30;99.90
41694;DHT22;27377;50.666;9.150;2023-08-21T05:21:43;18.30;99.90
41694;DHT22;27377;50.666;9.150;2023-08-21T05:24:09;18.40;99.90
41694;DHT22;27377;50.666;9.150;2023-08-21T05:26:38;18.40;99.90
41694;DHT22;27377;50.666;9.150;2023-08-21T05:29:04;18.40;99.90
41694;DHT22;27377;50.666;9.150;2023-08-21T05:31:30;18.40;99.90
41694;DHT22;27377;50.666;9.150;2023-08-21T05:33:55;18.40;99.90
41694;DHT22;27377;50.666;9.150;2023-08-21T05:36:21;18.40;99.90
41694;DHT22;27377;50.666;9.150;2023-08-21T05:38:46;18.40;99.90
41694;DHT22;27377;50.666;9.150;2023-08-21T05:41:14;18.50;99.90
41694;DHT22;27377;50.666;9.150;2023-08-21T05:43:39;18.50;99.90
41694;DHT22;27377;50.666;9.150;2023-08-21T05:46:07;18.60;99.90
41694;DHT22;27377;50.666;9.150;2023-08-21T05:48:33;18.60;99.90
41694;DHT22;27377;50.666;9.150;2023-08-21T05:50:59;18.60;99.90
41694;DHT22;27377;50.666;9.150;2023-08-21T05:53:25;18.60;99.90
41694;DHT22;27377;50.666;9.150;2023-08-21T05:55:51;18.70;99.90
41694;DHT22;27377;50.666;9.150;2023-08-21T05:58:17;18.70;99.90
41694;DHT22;27377;50.666;9.150;2023-08-21T06:00:42;18.70;99.90
41694;DHT22;27377;50.666;9.150;2023-08-21T06:03:09;18.80;99.90
41694;DHT22;27377;50.666;9.150;2023-08-21T06:05:35;18.80;99.90
41694;DHT22;27377;50.666;9.150;2023-08-21T06:08:01;18.90;99.90
41694;DHT22;27377;50.666;9.150;2023-08-21T06:10:27;18.90;99.90
41694;DHT22;27377;50.666;9.150;2023-08-21T06:12:52;19.00;99.90
41694;DHT22;27377;50.666;9.150;2023-08-21T06:15:18;19.10;99.90
41694;DHT22;27377;50.666;9.150;2023-08-21T06:17:43;19.20;99.90
41694;DHT22;27377;50.666;9.150;2023-08-21T06:20:09;19.20;99.90
41694;DHT22;27377;50.666;9.150;2023-08-21T06:22:35;19.30;99.90
41694;DHT22;27377;50.666;9.150;2023-08-21T06:25:01;19.40;99.90
41694;DHT22;27377;50.666;9.150;2023-08-21T06:27:27;19.40;99.90
41694;DHT22;27377;50.666;9.150;2023-08-21T06:29:53;19.40;99.90
41694;DHT22;27377;50.666;9.150;2023-08-21T06:32:18;19.50;99.90
41694;DHT22;27377;50.666;9.150;2023-08-21T06:34:44;19.50;99.90
41694;DHT22;27377;50.666;9.150;2023-08-21T06:37:09;19.60;99.90
41694;DHT22;27377;50.666;9.150;2023-08-21T06:39:35;19.70;99.90
41694;DHT22;27377;50.666;9.150;2023-08-21T06:42:01;19.70;99.90
41694;DHT22;27377;50.666;9.150;2023-08-21T06:44:26;19.80;99.90
41694;DHT22;27377;50.666;9.150;2023-08-21T06:46:52;19.90;99.90
41694;DHT22;27377;50.666;9.150;2023-08-21T06:49:18;19.90;99.90
41694;DHT22;27377;50.666;9.150;2023-08-21T06:51:43;20.00;99.90
41694;DHT22;27377;50.666;9.150;2023-08-21T06:54:09;20.10;99.90
41694;DHT22;27377;50.666;9.150;2023-08-21T06:56:35;20.10;99.90
41694;DHT22;27377;50.666;9.150;2023-08-21T06:59:00;20.10;99.90
41694;DHT22;27377;50.666;9.150;2023-08-21T07:01:27;20.20;99.90
41694;DHT22;27377;50.666;9.150;2023-08-21T07:03:53;20.30;99.90
41694;DHT22;27377;50.666;9.150;2023-08-21T07:06:19;20.30;99.90
41694;DHT22;27377;50.666;9.150;2023-08-21T07:08:44;20.40;99.90
41694;DHT22;27377;50.666;9.150;2023-08-21T07:11:10;20.40;99.90
41694;DHT22;27377;50.666;9.150;2023-08-21T07:13:37;20.50;99.90
41694;DHT22;27377;50.666;9.150;2023-08-21T07:16:03;20.50;99.90
41694;DHT22;27377;50.666;9.150;2023-08-21T07:18:32;20.60;99.90
41694;DHT22;27377;50.666;9.150;2023-08-21T07:20:58;20.60;99.90
41694;DHT22;27377;50.666;9.150;2023-08-21T07:23:24;20.70;99.90
41694;DHT22;27377;50.666;9.150;2023-08-21T07:25:49;20.70;99.90
41694;DHT22;27377;50.666;9.150;2023-08-21T07:28:15;20.80;99.90
41694;DHT22;27377;50.666;9.150;2023-08-21T07:30:41;20.90;99.90
41694;DHT22;27377;50.666;9.150;2023-08-21T07:33:06;20.90;99.90
41694;DHT22;27377;50.666;9.150;2023-08-21T07:35:32;21.00;99.90
41694;DHT22;27377;50.666;9.150;2023-08-21T07:38:01;21.00;99.90
41694;DHT22;27377;50.666;9.150;2023-08-21T07:40:27;21.10;99.90
41694;DHT22;27377;50.666;9.150;2023-08-21T07:42:53;21.10;99.90
41694;DHT22;27377;50.666;9.150;2023-08-21T07:45:19;21.20;99.90
41694;DHT22;27377;50.666;9.150;2023-08-21T07:47:45;21.20;99.90
41694;DHT22;27377;50.666;9.150;2023-08-21T07:50:10;21.30;99.90
41694;DHT22;27377;50.666;9.150;2023-08-21T07:52:36;21.40;99.90
41694;DHT22;27377;50.666;9.150;2023-08-21T07:55:02;21.40;99.90
41694;DHT22;27377;50.666;9.150;2023-08-21T07:57:29;21.40;99.90
41694;DHT22;27377;50.666;9.150;2023-08-21T07:59:55;21.50;99.90
41694;DHT22;27377;50.666;9.150;2023-08-21T08:02:20;21.50;99.90
41694;DHT22;27377;50.666;9.150;2023-08-21T08:04:49;21.50;99.90
41694;DHT22;27377;50.666;9.150;2023-08-21T08:07:15;21.50;99.90
41694;DHT22;27377;50.666;9.150;2023-08-21T08:09:40;21.60;99.90
41694;DHT22;27377;50.666;9.150;2023-08-21T08:12:07;21.60;99.90
41694;DHT22;27377;50.666;9.150;2023-08-21T08:14:32;21.60;99.90
41694;DHT22;27377;50.666;9.150;2023-08-21T08:16:58;21.70;99.90
41694;DHT22;27377;50.666;9.150;2023-08-21T08:19:24;21.70;99.90
41694;DHT22;27377;50.666;9.150;2023-08-21T08:21:50;21.80;99.90
41694;DHT22;27377;50.666;9.150;2023-08-21T08:24:15;21.80;99.90
41694;DHT22;27377;50.666;9.150;2023-08-21T08:26:41;21.90;99.90
41694;DHT22;27377;50.666;9.150;2023-08-21T08:29:09;21.90;99.90
41694;DHT22;27377;50.666;9.150;2023-08-21T08:31:34;21.90;99.90
41694;DHT22;27377;50.666;9.150;2023-08-21T08:34:01;22.00;99.90
41694;DHT22;27377;50.666;9.150;2023-08-21T08:36:27;22.00;99.90
41694;DHT22;27377;50.666;9.150;2023-08-21T08:38:52;22.00;99.90
41694;DHT22;27377;50.666;9.150;2023-08-21T08:43:57;22.10;99.90
41694;DHT22;27377;50.666;9.150;2023-08-21T08:46:24;22.20;99.90
41694;DHT22;27377;50.666;9.150;2023-08-21T08:48:54;22.20;99.90
41694;DHT22;27377;50.666;9.150;2023-08-21T08:51:19;22.30;99.90
41694;DHT22;27377;50.666;9.150;2023-08-21T08:53:47;22.30;99.90
41694;DHT22;27377;50.666;9.150;2023-08-21T08:56:13;22.40;99.90
41694;DHT22;27377;50.666;9.150;2023-08-21T08:58:38;22.40;99.90
41694;DHT22;27377;50.666;9.150;2023-08-21T09:01:04;22.50;99.90
41694;DHT22;27377;50.666;9.150;2023-08-21T09:03:30;22.50;99.90
41694;DHT22;27377;50.666;9.150;2023-08-21T09:05:56;22.50;99.90
41694;DHT22;27377;50.666;9.150;2023-08-21T09:08:25;22.60;99.90
41694;DHT22;27377;50.666;9.150;2023-08-21T09:10:51;22.60;99.90
41694;DHT22;27377;50.666;9.150;2023-08-21T09:13:19;22.60;99.90
41694;DHT22;27377;50.666;9.150;2023-08-21T09:15:46;22.70;99.90
41694;DHT22;27377;50.666;9.150;2023-08-21T09:18:18;22.70;99.90
41694;DHT22;27377;50.666;9.150;2023-08-21T09:20:44;22.80;99.90
41694;DHT22;27377;50.666;9.150;2023-08-21T09:23:14;22.80;99.90
41694;DHT22;27377;50.666;9.150;2023-08-21T09:25:41;22.80;99.90
41694;DHT22;27377;50.666;9.150;2023-08-21T09:28:08;22.90;99.90
41694;DHT22;27377;50.666;9.150;2023-08-21T09:30:56;22.80;99.90
41694;DHT22;27377;50.666;9.150;2023-08-21T09:33:24;22.90;99.90
41694;DHT22;27377;50.666;9.150;2023-08-21T09:35:54;23.00;99.90
41694;DHT22;27377;50.666;9.150;2023-08-21T09:38:25;23.10;99.90
41694;DHT22;27377;50.666;9.150;2023-08-21T09:40:54;23.00;99.90
41694;DHT22;27377;50.666;9.150;2023-08-21T09:43:22;23.10;99.90
41694;DHT22;27377;50.666;9.150;2023-08-21T09:45:52;23.20;99.90
41694;DHT22;27377;50.666;9.150;2023-08-21T09:48:23;23.20;99.90
41694;DHT22;27377;50.666;9.150;2023-08-21T09:50:51;23.30;99.90
41694;DHT22;27377;50.666;9.150;2023-08-21T09:53:17;23.30;99.90
41694;DHT22;27377;50.666;9.150;2023-08-21T09:55:43;23.30;99.90
41694;DHT22;27377;50.666;9.150;2023-08-21T09:58:09;23.30;99.90
41694;DHT22;27377;50.666;9.150;2023-08-21T10:00:37;23.30;99.90
41694;DHT22;27377;50.666;9.150;2023-08-21T10:03:06;23.30;99.90
41694;DHT22;27377;50.666;9.150;2023-08-21T10:05:34;23.40;99.90
41694;DHT22;27377;50.666;9.150;2023-08-21T10:08:01;23.40;99.90
41694;DHT22;27377;50.666;9.150;2023-08-21T10:10:34;23.50;99.90
41694;DHT22;27377;50.666;9.150;2023-08-21T10:13:00;23.50;99.90
41694;DHT22;27377;50.666;9.150;2023-08-21T10:15:30;23.50;99.90
41694;DHT22;27377;50.666;9.150;2023-08-21T10:20:43;23.60;99.90
41694;DHT22;27377;50.666;9.150;2023-08-21T10:23:09;23.70;99.90
41694;DHT22;27377;50.666;9.150;2023-08-21T10:25:41;23.70;99.90
41694;DHT22;27377;50.666;9.150;2023-08-21T10:28:08;23.70;99.90
41694;DHT22;27377;50.666;9.150;2023-08-21T10:30:34;23.70;99.90
41694;DHT22;27377;50.666;9.150;2023-08-21T10:33:00;23.80;99.90
41694;DHT22;27377;50.666;9.150;2023-08-21T10:35:30;23.80;99.90
41694;DHT22;27377;50.666;9.150;2023-08-21T10:38:15;23.80;99.90
41694;DHT22;27377;50.666;9.150;2023-08-21T10:41:05;23.80;99.90
41694;DHT22;27377;50.666;9.150;2023-08-21T10:43:44;23.80;99.90
41694;DHT22;27377;50.666;9.150;2023-08-21T10:46:11;23.80;99.90
41694;DHT22;27377;50.666;9.150;2023-08-21T10:48:39;23.90;99.90
41694;DHT22;27377;50.666;9.150;2023-08-21T10:51:07;23.90;99.90
41694;DHT22;27377;50.666;9.150;2023-08-21T10:53:35;23.90;99.90
41694;DHT22;27377;50.666;9.150;2023-08-21T10:56:05;23.90;99.90
41694;DHT22;27377;50.666;9.150;2023-08-21T10:58:44;24.00;99.90
41694;DHT22;27377;50.666;9.150;2023-08-21T11:01:16;24.00;99.90
41694;DHT22;27377;50.666;9.150;2023-08-21T11:03:46;24.00;99.90
41694;DHT22;27377;50.666;9.150;2023-08-21T11:06:22;24.00;99.90
41694;DHT22;27377;50.666;9.150;2023-08-21T11:08:48;24.00;99.90
41694;DHT22;27377;50.666;9.150;2023-08-21T11:11:17;24.00;99.90
41694;DHT22;27377;50.666;9.150;2023-08-21T11:13:53;24.10;99.90
41694;DHT22;27377;50.666;9.150;2023-08-21T11:16:21;24.10;99.90
41694;DHT22;27377;50.666;9.150;2023-08-21T11:18:48;24.00;99.90
41694;DHT22;27377;50.666;9.150;2023-08-21T11:21:14;24.00;99.90
41694;DHT22;27377;50.666;9.150;2023-08-21T11:23:41;24.00;99.90
41694;DHT22;27377;50.666;9.150;2023-08-21T11:26:12;24.00;99.90
41694;DHT22;27377;50.666;9.150;2023-08-21T11:28:38;24.00;99.90
41694;DHT22;27377;50.666;9.150;2023-08-21T11:31:05;24.00;99.90
41694;DHT22;27377;50.666;9.150;2023-08-21T11:33:31;24.00;99.90
41694;DHT22;27377;50.666;9.150;2023-08-21T11:36:00;24.00;99.90
41694;DHT22;27377;50.666;9.150;2023-08-21T11:38:27;24.00;99.90
41694;DHT22;27377;50.666;9.150;2023-08-21T11:40:58;24.00;99.90
41694;DHT22;27377;50.666;9.150;2023-08-21T11:43:42;24.00;99.90
41694;DHT22;27377;50.666;9.150;2023-08-21T11:46:10;24.00;99.90
41694;DHT22;27377;50.666;9.150;2023-08-21T11:48:40;24.00;99.90
41694;DHT22;27377;50.666;9.150;2023-08-21T11:51:09;24.00;99.90
41694;DHT22;27377;50.666;9.150;2023-08-21T11:56:02;24.10;99.90
41694;DHT22;27377;50.666;9.150;2023-08-21T11:58:28;24.10;99.90
41694;DHT22;27377;50.666;9.150;2023-08-21T12:00:53;24.20;99.90
41694;DHT22;27377;50.666;9.150;2023-08-21T12:03:19;24.30;99.90
41694;DHT22;27377;50.666;9.150;2023-08-21T12:05:45;24.40;99.90
41694;DHT22;27377;50.666;9.150;2023-08-21T12:08:11;24.40;99.90
41694;DHT22;27377;50.666;9.150;2023-08-21T12:10:37;24.50;99.90
41694;DHT22;27377;50.666;9.150;2023-08-21T12:13:03;24.50;99.90
41694;DHT22;27377;50.666;9.150;2023-08-21T12:15:35;24.60;99.90
41694;DHT22;27377;50.666;9.150;2023-08-21T12:18:01;24.60;99.90
41694;DHT22;27377;50.666;9.150;2023-08-21T12:20:27;24.60;99.90
41694;DHT22;27377;50.666;9.150;2023-08-21T12:22:53;24.60;99.90
41694;DHT22;27377;50.666;9.150;2023-08-21T12:25:19;24.70;99.90
41694;DHT22;27377;50.666;9.150;2023-08-21T12:27:46;24.80;99.90
41694;DHT22;27377;50.666;9.150;2023-08-21T12:30:12;24.70;99.90
41694;DHT22;27377;50.666;9.150;2023-08-21T12:32:38;24.70;99.90
41694;DHT22;27377;50.666;9.150;2023-08-21T12:35:06;24.70;99.90
41694;DHT22;27377;50.666;9.150;2023-08-21T12:37:33;24.80;99.90
41694;DHT22;27377;50.666;9.150;2023-08-21T12:39:59;24.80;99.90
41694;DHT22;27377;50.666;9.150;2023-08-21T12:42:25;24.80;99.90
41694;DHT22;27377;50.666;9.150;2023-08-21T12:44:54;24.80;99.90
41694;DHT22;27377;50.666;9.150;2023-08-21T12:47:20;24.80;99.90
41694;DHT22;27377;50.666;9.150;2023-08-21T12:49:46;24.80;99.90
41694;DHT22;27377;50.666;9.150;2023-08-21T12:52:12;24.80;99.90
41694;DHT22;27377;50.666;9.150;2023-08-21T12:54:39;24.90;99.90
41694;DHT22;27377;50.666;9.150;2023-08-21T12:57:04;25.00;99.90
41694;DHT22;27377;50.666;9.150;2023-08-21T12:59:30;25.00;99.90
41694;DHT22;27377;50.666;9.150;2023-08-21T13:01:59;25.00;99.90
41694;DHT22;27377;50.666;9.150;2023-08-21T13:04:25;25.00;99.90
41694;DHT22;27377;50.666;9.150;2023-08-21T13:06:51;25.00;99.90
41694;DHT22;27377;50.666;9.150;2023-08-21T13:09:17;25.00;99.90
41694;DHT22;27377;50.666;9.150;2023-08-21T13:11:42;25.10;99.90
41694;DHT22;27377;50.666;9.150;2023-08-21T13:14:08;25.10;99.90
41694;DHT22;27377;50.666;9.150;2023-08-21T13:16:33;25.10;99.90
41694;DHT22;27377;50.666;9.150;2023-08-21T13:18:59;25.10;99.90
41694;DHT22;27377;50.666;9.150;2023-08-21T13:21:24;25.10;99.90
41694;DHT22;27377;50.666;9.150;2023-08-21T13:23:50;25.10;99.90
41694;DHT22;27377;50.666;9.150;2023-08-21T13:26:15;25.20;99.90
41694;DHT22;27377;50.666;9.150;2023-08-21T13:28:41;25.20;99.90
41694;DHT22;27377;50.666;9.150;2023-08-21T13:31:06;25.20;99.90
41694;DHT22;27377;50.666;9.150;2023-08-21T13:33:47;25.30;99.90
41694;DHT22;27377;50.666;9.150;2023-08-21T13:36:14;25.30;99.90
41694;DHT22;27377;50.666;9.150;2023-08-21T13:38:40;25.30;99.90
41694;DHT22;27377;50.666;9.150;2023-08-21T13:41:07;25.40;99.90
41694;DHT22;27377;50.666;9.150;2023-08-21T13:43:34;25.40;99.90
41694;DHT22;27377;50.666;9.150;2023-08-21T13:46:02;25.40;99.90
41694;DHT22;27377;50.666;9.150;2023-08-21T13:48:30;25.40;99.90
41694;DHT22;27377;50.666;9.150;2023-08-21T13:50:56;25.40;99.90
41694;DHT22;27377;50.666;9.150;2023-08-21T13:53:22;25.40;99.90
41694;DHT22;27377;50.666;9.150;2023-08-21T13:55:47;25.40;99.90
41694;DHT22;27377;50.666;9.150;2023-08-21T13:58:13;25.40;99.90
41694;DHT22;27377;50.666;9.150;2023-08-21T14:00:39;25.50;99.90
41694;DHT22;27377;50.666;9.150;2023-08-21T14:03:10;25.50;99.90
41694;DHT22;27377;50.666;9.150;2023-08-21T14:05:36;25.50;99.90
41694;DHT22;27377;50.666;9.150;2023-08-21T14:08:03;25.50;99.90
41694;DHT22;27377;50.666;9.150;2023-08-21T14:10:29;25.50;99.90
41694;DHT22;27377;50.666;9.150;2023-08-21T14:12:55;25.50;99.90
41694;DHT22;27377;50.666;9.150;2023-08-21T14:15:22;25.60;99.90
41694;DHT22;27377;50.666;9.150;2023-08-21T14:17:48;25.60;99.90
41694;DHT22;27377;50.666;9.150;2023-08-21T14:20:15;25.60;99.90
41694;DHT22;27377;50.666;9.150;2023-08-21T14:22:40;25.60;99.90
41694;DHT22;27377;50.666;9.150;2023-08-21T14:25:06;25.70;99.90
41694;DHT22;27377;50.666;9.150;2023-08-21T14:27:32;25.60;99.90
41694;DHT22;27377;50.666;9.150;2023-08-21T14:29:58;25.60;99.90
41694;DHT22;27377;50.666;9.150;2023-08-21T14:32:24;25.70;99.90
41694;DHT22;27377;50.666;9.150;2023-08-21T14:34:50;25.70;99.90
41694;DHT22;27377;50.666;9.150;2023-08-21T14:37:19;25.70;99.90
41694;DHT22;27377;50.666;9.150;2023-08-21T14:39:47;25.70;99.90
41694;DHT22;27377;50.666;9.150;2023-08-21T14:42:14;25.60;99.90
41694;DHT22;27377;50.666;9.150;2023-08-21T14:44:40;25.60;99.90
41694;DHT22;27377;50.666;9.150;2023-08-21T14:47:06;25.60;99.90
41694;DHT22;27377;50.666;9.150;2023-08-21T14:49:32;25.60;99.90
41694;DHT22;27377;50.666;9.150;2023-08-21T14:52:18;25.60;99.90
41694;DHT22;27377;50.666;9.150;2023-08-21T14:54:54;25.60;99.90
41694;DHT22;27377;50.666;9.150;2023-08-21T14:57:20;25.60;99.90
41694;DHT22;27377;50.666;9.150;2023-08-21T14:59:46;25.60;99.90
41694;DHT22;27377;50.666;9.150;2023-08-21T15:02:12;25.60;99.90
41694;DHT22;27377;50.666;9.150;2023-08-21T15:04:38;25.60;99.90
41694;DHT22;27377;50.666;9.150;2023-08-21T15:07:06;25.60;99.90
41694;DHT22;27377;50.666;9.150;2023-08-21T15:09:33;25.60;99.90
41694;DHT22;27377;50.666;9.150;2023-08-21T15:12:06;25.60;99.90
41694;DHT22;27377;50.666;9.150;2023-08-21T15:14:33;25.70;99.90
41694;DHT22;27377;50.666;9.150;2023-08-21T15:17:02;25.70;99.90
41694;DHT22;27377;50.666;9.150;2023-08-21T15:19:28;25.70;99.90
41694;DHT22;27377;50.666;9.150;2023-08-21T15:21:55;25.80;99.90
41694;DHT22;27377;50.666;9.150;2023-08-21T15:24:21;25.90;99.90
41694;DHT22;27377;50.666;9.150;2023-08-21T15:26:48;25.90;99.90
41694;DHT22;27377;50.666;9.150;2023-08-21T15:29:14;25.80;99.90
41694;DHT22;27377;50.666;9.150;2023-08-21T15:31:40;25.80;99.90
41694;DHT22;27377;50.666;9.150;2023-08-21T15:34:06;25.80;99.90
41694;DHT22;27377;50.666;9.150;2023-08-21T15:36:35;25.70;99.90
41694;DHT22;27377;50.666;9.150;2023-08-21T15:39:01;25.60;99.90